sensor_id;sensor_type;location;lat;lon;timestamp;pressure;altitude;pressure_sealevel;temperature;humidity
15529;BME280;7866;52.280;9.500;2023-04-27T00:04:40;100673.84;;;7.22;65.00
15529;BME280;7866;52.280;9.500;2023-04-27T00:09:43;100673.72;;;7.13;65.55
15529;BME280;7866;52.280;9.500;2023-04-27T00:14:45;100685.09;;;7.15;65.65
15529;BME280;7866;52.280;9.500;2023-04-27T00:19:46;100681.03;;;7.11;65.74
15529;BME280;7866;52.280;9.500;2023-04-27T00:24:49;100682.28;;;7.07;65.73
15529;BME280;7866;52.280;9.500;2023-04-27T00:29:51;100680.25;;;6.90;66.44
15529;BME280;7866;52.280;9.500;2023-04-27T00:34:53;100683.50;;;6.94;66.53
15529;BME280;7866;52.280;9.500;2023-04-27T00:39:56;100677.34;;;6.93;67.03
15529;BME280;7866;52.280;9.500;2023-04-27T00:44:57;100680.97;;;6.82;65.89
15529;BME280;7866;52.280;9.500;2023-04-27T00:49:59;100688.53;;;6.87;66.35
15529;BME280;7866;52.280;9.500;2023-04-27T00:55:03;100686.81;;;6.66;66.38
15529;BME280;7866;52.280;9.500;2023-04-27T01:00:06;100684.00;;;6.68;67.57
15529;BME280;7866;52.280;9.500;2023-04-27T01:05:10;100677.53;;;6.61;67.87
15529;BME280;7866;52.280;9.500;2023-04-27T01:10:13;100690.75;;;6.41;67.96
15529;BME280;7866;52.280;9.500;2023-04-27T01:15:15;100697.28;;;6.28;68.66
15529;BME280;7866;52.280;9.500;2023-04-27T01:20:17;100681.94;;;6.41;67.90
15529;BME280;7866;52.280;9.500;2023-04-27T01:25:21;100695.38;;;6.39;68.25
15529;BME280;7866;52.280;9.500;2023-04-27T01:30:22;100704.03;;;6.32;68.20
15529;BME280;7866;52.280;9.500;2023-04-27T01:35:24;100713.66;;;6.23;67.58
15529;BME280;7866;52.280;9.500;2023-04-27T01:40:27;100730.13;;;5.96;69.47
15529;BME280;7866;52.280;9.500;2023-04-27T01:45:29;100729.19;;;5.86;69.33
15529;BME280;7866;52.280;9.500;2023-04-27T01:50:30;100735.13;;;5.78;70.72
15529;BME280;7866;52.280;9.500;2023-04-27T01:55:33;100747.13;;;5.73;70.08
15529;BME280;7866;52.280;9.500;2023-04-27T02:00:35;100748.63;;;5.65;70.80
15529;BME280;7866;52.280;9.500;2023-04-27T02:05:37;100756.81;;;5.62;70.94
15529;BME280;7866;52.280;9.500;2023-04-27T02:10:40;100756.50;;;5.56;70.49
15529;BME280;7866;52.280;9.500;2023-04-27T02:15:41;100765.66;;;5.31;71.12
15529;BME280;7866;52.280;9.500;2023-04-27T02:20:43;100762.44;;;5.16;72.00
15529;BME280;7866;52.280;9.500;2023-04-27T02:25:46;100771.84;;;5.09;72.06
15529;BME280;7866;52.280;9.500;2023-04-27T02:30:48;100776.69;;;5.04;72.14
15529;BME280;7866;52.280;9.500;2023-04-27T02:35:49;100770.41;;;5.05;72.10
15529;BME280;7866;52.280;9.500;2023-04-27T02:40:53;100764.41;;;4.91;73.04
15529;BME280;7866;52.280;9.500;2023-04-27T02:45:55;100762.47;;;4.71;72.80
15529;BME280;7866;52.280;9.500;2023-04-27T02:50:57;100761.13;;;4.65;74.70
15529;BME280;7866;52.280;9.500;2023-04-27T02:56:00;100759.81;;;4.71;73.94
15529;BME280;7866;52.280;9.500;2023-04-27T03:01:02;100760.78;;;4.70;73.56
15529;BME280;7866;52.280;9.500;2023-04-27T03:06:04;100755.81;;;4.54;73.89
15529;BME280;7866;52.280;9.500;2023-04-27T03:11:07;100757.41;;;4.68;74.40
15529;BME280;7866;52.280;9.500;2023-04-27T03:16:10;100749.81;;;4.63;73.48
15529;BME280;7866;52.280;9.500;2023-04-27T03:21:12;100750.44;;;4.67;73.38
15529;BME280;7866;52.280;9.500;2023-04-27T03:26:15;100754.16;;;4.64;73.04
15529;BME280;7866;52.280;9.500;2023-04-27T03:31:16;100764.03;;;4.62;74.36
15529;BME280;7866;52.280;9.500;2023-04-27T03:36:18;100761.03;;;4.67;72.82
15529;BME280;7866;52.280;9.500;2023-04-27T03:41:21;100762.47;;;4.71;72.24
15529;BME280;7866;52.280;9.500;2023-04-27T03:46:23;100763.06;;;4.75;73.43
15529;BME280;7866;52.280;9.500;2023-04-27T03:51:24;100776.34;;;4.63;73.80
15529;BME280;7866;52.280;9.500;2023-04-27T03:56:27;100764.97;;;4.50;73.49
15529;BME280;7866;52.280;9.500;2023-04-27T04:01:29;100766.69;;;4.51;73.13
15529;BME280;7866;52.280;9.500;2023-04-27T04:06:31;100771.75;;;4.54;73.16
15529;BME280;7866;52.280;9.500;2023-04-27T04:11:34;100773.69;;;4.52;72.69
15529;BME280;7866;52.280;9.500;2023-04-27T04:16:35;100779.31;;;4.36;73.42
15529;BME280;7866;52.280;9.500;2023-04-27T04:21:37;100779.78;;;4.30;74.18
15529;BME280;7866;52.280;9.500;2023-04-27T04:26:40;100781.25;;;4.23;74.59
15529;BME280;7866;52.280;9.500;2023-04-27T04:31:41;100789.28;;;4.22;74.71
15529;BME280;7866;52.280;9.500;2023-04-27T04:36:43;100787.66;;;4.43;74.91
15529;BME280;7866;52.280;9.500;2023-04-27T04:41:46;100785.00;;;4.65;73.77
15529;BME280;7866;52.280;9.500;2023-04-27T04:46:48;100789.09;;;5.58;71.96
15529;BME280;7866;52.280;9.500;2023-04-27T04:51:50;100790.03;;;6.21;69.48
15529;BME280;7866;52.280;9.500;2023-04-27T04:56:53;100794.66;;;7.01;66.84
15529;BME280;7866;52.280;9.500;2023-04-27T05:01:55;100796.63;;;8.07;64.60
15529;BME280;7866;52.280;9.500;2023-04-27T05:06:56;100803.63;;;8.08;62.67
15529;BME280;7866;52.280;9.500;2023-04-27T05:12:01;100800.78;;;8.29;62.68
15529;BME280;7866;52.280;9.500;2023-04-27T05:17:03;100812.81;;;8.72;63.21
15529;BME280;7866;52.280;9.500;2023-04-27T05:22:05;100807.97;;;9.23;61.55
15529;BME280;7866;52.280;9.500;2023-04-27T05:27:08;100808.22;;;9.02;62.40
15529;BME280;7866;52.280;9.500;2023-04-27T05:32:09;100810.38;;;9.44;62.67
15529;BME280;7866;52.280;9.500;2023-04-27T05:37:11;100806.75;;;9.62;61.04
15529;BME280;7866;52.280;9.500;2023-04-27T05:42:14;100818.00;;;10.02;61.35
15529;BME280;7866;52.280;9.500;2023-04-27T05:47:16;100829.19;;;10.41;59.40
15529;BME280;7866;52.280;9.500;2023-04-27T05:52:17;100828.75;;;9.74;59.29
15529;BME280;7866;52.280;9.500;2023-04-27T05:57:20;100832.09;;;9.58;58.97
15529;BME280;7866;52.280;9.500;2023-04-27T06:02:22;100842.72;;;9.23;59.86
15529;BME280;7866;52.280;9.500;2023-04-27T06:07:24;100839.50;;;9.19;58.79
15529;BME280;7866;52.280;9.500;2023-04-27T06:12:26;100845.97;;;9.44;57.22
15529;BME280;7866;52.280;9.500;2023-04-27T06:17:28;100844.44;;;9.14;59.09
15529;BME280;7866;52.280;9.500;2023-04-27T06:22:30;100844.47;;;9.32;58.94
15529;BME280;7866;52.280;9.500;2023-04-27T06:27:33;100842.53;;;9.52;58.83
15529;BME280;7866;52.280;9.500;2023-04-27T06:32:35;100853.03;;;9.81;57.73
15529;BME280;7866;52.280;9.500;2023-04-27T06:37:36;100859.03;;;9.47;57.79
15529;BME280;7866;52.280;9.500;2023-04-27T06:42:39;100865.06;;;9.49;58.32
15529;BME280;7866;52.280;9.500;2023-04-27T06:47:41;100871.78;;;9.53;54.96
15529;BME280;7866;52.280;9.500;2023-04-27T06:52:42;100874.44;;;9.35;57.07
15529;BME280;7866;52.280;9.500;2023-04-27T06:57:45;100863.16;;;9.42;56.74
15529;BME280;7866;52.280;9.500;2023-04-27T07:02:47;100853.69;;;9.47;57.44
15529;BME280;7866;52.280;9.500;2023-04-27T07:07:49;100864.03;;;9.32;57.36
15529;BME280;7866;52.280;9.500;2023-04-27T07:12:52;100866.88;;;9.31;55.36
15529;BME280;7866;52.280;9.500;2023-04-27T07:17:53;100863.19;;;9.59;56.58
15529;BME280;7866;52.280;9.500;2023-04-27T07:22:55;100870.94;;;9.25;54.05
15529;BME280;7866;52.280;9.500;2023-04-27T07:27:58;100885.69;;;9.29;55.07
15529;BME280;7866;52.280;9.500;2023-04-27T07:32:59;100885.50;;;9.50;56.05
15529;BME280;7866;52.280;9.500;2023-04-27T07:38:01;100879.22;;;10.23;54.87
15529;BME280;7866;52.280;9.500;2023-04-27T07:43:04;100879.22;;;9.32;56.27
15529;BME280;7866;52.280;9.500;2023-04-27T07:48:06;100882.44;;;10.44;53.93
15529;BME280;7866;52.280;9.500;2023-04-27T07:53:25;100872.31;;;10.74;52.74
15529;BME280;7866;52.280;9.500;2023-04-27T07:58:28;100877.84;;;10.54;52.52
15529;BME280;7866;52.280;9.500;2023-04-27T08:03:30;100871.25;;;9.95;51.85
15529;BME280;7866;52.280;9.500;2023-04-27T08:08:32;100870.34;;;10.84;52.07
15529;BME280;7866;52.280;9.500;2023-04-27T08:13:35;100868.19;;;10.62;52.83
15529;BME280;7866;52.280;9.500;2023-04-27T08:18:36;100868.63;;;10.75;49.61
15529;BME280;7866;52.280;9.500;2023-04-27T08:23:38;100871.66;;;10.80;50.10
15529;BME280;7866;52.280;9.500;2023-04-27T08:28:41;100866.38;;;11.22;50.66
15529;BME280;7866;52.280;9.500;2023-04-27T08:33:43;100866.78;;;11.01;49.59
15529;BME280;7866;52.280;9.500;2023-04-27T08:38:44;100866.06;;;10.99;49.99
15529;BME280;7866;52.280;9.500;2023-04-27T08:43:48;100862.19;;;10.68;50.77
15529;BME280;7866;52.280;9.500;2023-04-27T08:48:50;100871.34;;;10.83;49.76
15529;BME280;7866;52.280;9.500;2023-04-27T08:53:53;100867.94;;;11.33;49.70
15529;BME280;7866;52.280;9.500;2023-04-27T08:58:57;100856.56;;;11.39;49.66
15529;BME280;7866;52.280;9.500;2023-04-27T09:04:00;100859.75;;;10.74;49.53
15529;BME280;7866;52.280;9.500;2023-04-27T09:09:03;100862.22;;;10.94;49.81
15529;BME280;7866;52.280;9.500;2023-04-27T09:14:17;100855.50;;;11.74;46.43
15529;BME280;7866;52.280;9.500;2023-04-27T09:19:23;100852.69;;;11.92;47.36
15529;BME280;7866;52.280;9.500;2023-04-27T09:24:25;100858.84;;;11.26;47.61
15529;BME280;7866;52.280;9.500;2023-04-27T09:29:34;100852.63;;;11.76;44.63
15529;BME280;7866;52.280;9.500;2023-04-27T09:34:37;100850.41;;;11.55;47.36
15529;BME280;7866;52.280;9.500;2023-04-27T09:39:40;100845.88;;;11.55;48.02
15529;BME280;7866;52.280;9.500;2023-04-27T09:44:43;100839.53;;;11.73;44.65
15529;BME280;7866;52.280;9.500;2023-04-27T09:49:45;100835.09;;;11.39;46.88
15529;BME280;7866;52.280;9.500;2023-04-27T09:54:51;100827.91;;;12.06;46.83
15529;BME280;7866;52.280;9.500;2023-04-27T10:00:04;100831.41;;;11.40;45.96
15529;BME280;7866;52.280;9.500;2023-04-27T10:05:36;100831.59;;;12.14;44.34
15529;BME280;7866;52.280;9.500;2023-04-27T10:10:42;100834.56;;;12.68;45.29
15529;BME280;7866;52.280;9.500;2023-04-27T10:15:49;100828.84;;;12.79;43.26
15529;BME280;7866;52.280;9.500;2023-04-27T10:20:51;100823.50;;;12.63;44.26
15529;BME280;7866;52.280;9.500;2023-04-27T10:25:54;100830.59;;;12.23;45.08
15529;BME280;7866;52.280;9.500;2023-04-27T10:31:08;100830.91;;;11.95;42.52
15529;BME280;7866;52.280;9.500;2023-04-27T10:36:13;100827.94;;;11.56;47.06
15529;BME280;7866;52.280;9.500;2023-04-27T10:41:16;100827.91;;;11.48;47.12
15529;BME280;7866;52.280;9.500;2023-04-27T10:46:19;100820.66;;;12.48;45.19
15529;BME280;7866;52.280;9.500;2023-04-27T10:51:23;100826.13;;;13.74;43.41
15529;BME280;7866;52.280;9.500;2023-04-27T10:56:26;100816.66;;;13.78;43.39
15529;BME280;7866;52.280;9.500;2023-04-27T11:01:29;100814.25;;;13.60;43.42
15529;BME280;7866;52.280;9.500;2023-04-27T11:06:31;100817.97;;;13.12;44.03
15529;BME280;7866;52.280;9.500;2023-04-27T11:11:33;100798.16;;;13.13;44.66
15529;BME280;7866;52.280;9.500;2023-04-27T11:16:44;100809.78;;;13.44;41.45
15529;BME280;7866;52.280;9.500;2023-04-27T11:21:46;100808.63;;;12.99;43.41
15529;BME280;7866;52.280;9.500;2023-04-27T11:26:50;100819.09;;;11.72;46.54
15529;BME280;7866;52.280;9.500;2023-04-27T11:31:53;100820.16;;;12.12;45.84
15529;BME280;7866;52.280;9.500;2023-04-27T11:36:55;100820.69;;;12.15;45.74
15529;BME280;7866;52.280;9.500;2023-04-27T11:42:13;100815.16;;;12.25;44.55
15529;BME280;7866;52.280;9.500;2023-04-27T11:47:17;100805.06;;;12.19;44.59
15529;BME280;7866;52.280;9.500;2023-04-27T11:52:19;100810.94;;;13.11;43.12
15529;BME280;7866;52.280;9.500;2023-04-27T11:57:23;100788.97;;;13.69;41.51
15529;BME280;7866;52.280;9.500;2023-04-27T12:02:28;100789.69;;;13.86;41.50
15529;BME280;7866;52.280;9.500;2023-04-27T12:07:30;100789.63;;;13.94;40.41
15529;BME280;7866;52.280;9.500;2023-04-27T12:12:31;100787.75;;;13.72;40.96
15529;BME280;7866;52.280;9.500;2023-04-27T12:17:35;100790.19;;;13.90;41.50
15529;BME280;7866;52.280;9.500;2023-04-27T12:22:36;100784.53;;;13.53;40.96
15529;BME280;7866;52.280;9.500;2023-04-27T12:27:38;100776.38;;;14.08;40.21
15529;BME280;7866;52.280;9.500;2023-04-27T12:32:41;100773.00;;;13.45;41.07
15529;BME280;7866;52.280;9.500;2023-04-27T12:37:43;100780.06;;;13.69;40.41
15529;BME280;7866;52.280;9.500;2023-04-27T12:42:47;100778.56;;;14.27;39.59
15529;BME280;7866;52.280;9.500;2023-04-27T12:47:50;100768.06;;;14.70;38.87
15529;BME280;7866;52.280;9.500;2023-04-27T12:52:53;100766.41;;;13.70;40.17
15529;BME280;7866;52.280;9.500;2023-04-27T12:57:55;100770.38;;;12.81;41.79
15529;BME280;7866;52.280;9.500;2023-04-27T13:02:59;100766.38;;;12.77;42.36
15529;BME280;7866;52.280;9.500;2023-04-27T13:08:00;100766.00;;;13.19;41.09
15529;BME280;7866;52.280;9.500;2023-04-27T13:13:02;100769.03;;;12.85;41.65
15529;BME280;7866;52.280;9.500;2023-04-27T13:18:05;100767.56;;;13.53;41.10
15529;BME280;7866;52.280;9.500;2023-04-27T13:23:07;100775.16;;;14.33;39.82
15529;BME280;7866;52.280;9.500;2023-04-27T13:28:08;100765.94;;;14.65;39.00
15529;BME280;7866;52.280;9.500;2023-04-27T13:33:11;100774.47;;;14.54;38.92
15529;BME280;7866;52.280;9.500;2023-04-27T13:38:13;100764.56;;;14.69;38.28
15529;BME280;7866;52.280;9.500;2023-04-27T13:43:15;100759.72;;;14.65;38.97
15529;BME280;7866;52.280;9.500;2023-04-27T13:48:17;100759.75;;;13.35;39.23
15529;BME280;7866;52.280;9.500;2023-04-27T13:53:20;100761.47;;;14.87;38.14
15529;BME280;7866;52.280;9.500;2023-04-27T13:58:26;100762.66;;;14.55;37.98
15529;BME280;7866;52.280;9.500;2023-04-27T14:03:29;100756.16;;;14.79;37.21
15529;BME280;7866;52.280;9.500;2023-04-27T14:08:30;100744.34;;;15.10;38.12
15529;BME280;7866;52.280;9.500;2023-04-27T14:13:32;100738.41;;;15.72;37.49
15529;BME280;7866;52.280;9.500;2023-04-27T14:18:35;100722.09;;;15.08;38.41
15529;BME280;7866;52.280;9.500;2023-04-27T14:23:36;100727.22;;;14.28;38.14
15529;BME280;7866;52.280;9.500;2023-04-27T14:28:39;100728.00;;;14.67;38.32
15529;BME280;7866;52.280;9.500;2023-04-27T14:33:42;100726.44;;;14.72;37.88
15529;BME280;7866;52.280;9.500;2023-04-27T14:38:44;100725.56;;;14.72;37.56
15529;BME280;7866;52.280;9.500;2023-04-27T14:43:45;100716.63;;;15.01;35.77
15529;BME280;7866;52.280;9.500;2023-04-27T14:48:49;100715.56;;;14.66;37.83
15529;BME280;7866;52.280;9.500;2023-04-27T14:53:51;100709.00;;;15.41;36.98
15529;BME280;7866;52.280;9.500;2023-04-27T14:58:52;100703.88;;;15.10;37.29
15529;BME280;7866;52.280;9.500;2023-04-27T15:03:56;100704.47;;;14.75;37.41
15529;BME280;7866;52.280;9.500;2023-04-27T15:08:58;100708.91;;;14.39;37.58
15529;BME280;7866;52.280;9.500;2023-04-27T15:14:00;100706.84;;;13.50;38.68
15529;BME280;7866;52.280;9.500;2023-04-27T15:19:02;100700.97;;;13.70;39.26
15529;BME280;7866;52.280;9.500;2023-04-27T15:24:04;100696.56;;;13.54;39.73
15529;BME280;7866;52.280;9.500;2023-04-27T15:29:06;100693.03;;;13.53;38.87
15529;BME280;7866;52.280;9.500;2023-04-27T15:34:09;100694.22;;;13.20;39.26
15529;BME280;7866;52.280;9.500;2023-04-27T15:39:11;100696.50;;;13.39;39.13
15529;BME280;7866;52.280;9.500;2023-04-27T15:44:12;100691.06;;;13.47;38.94
15529;BME280;7866;52.280;9.500;2023-04-27T15:49:15;100694.34;;;13.58;39.26
15529;BME280;7866;52.280;9.500;2023-04-27T15:54:17;100686.56;;;13.40;38.99
15529;BME280;7866;52.280;9.500;2023-04-27T15:59:19;100681.94;;;13.57;38.71
15529;BME280;7866;52.280;9.500;2023-04-27T16:04:22;100679.22;;;13.57;38.41
15529;BME280;7866;52.280;9.500;2023-04-27T16:09:23;100664.56;;;13.59;38.52
15529;BME280;7866;52.280;9.500;2023-04-27T16:14:25;100664.66;;;13.20;38.48
15529;BME280;7866;52.280;9.500;2023-04-27T16:19:28;100660.63;;;13.47;38.73
15529;BME280;7866;52.280;9.500;2023-04-27T16:24:30;100654.69;;;13.51;39.15
15529;BME280;7866;52.280;9.500;2023-04-27T16:29:32;100650.94;;;13.38;39.02
15529;BME280;7866;52.280;9.500;2023-04-27T16:34:35;100654.13;;;13.10;39.27
15529;BME280;7866;52.280;9.500;2023-04-27T16:39:37;100652.88;;;13.29;38.85
15529;BME280;7866;52.280;9.500;2023-04-27T16:44:38;100660.47;;;13.25;38.79
15529;BME280;7866;52.280;9.500;2023-04-27T16:49:42;100661.94;;;13.28;38.87
15529;BME280;7866;52.280;9.500;2023-04-27T16:54:43;100665.03;;;13.17;39.38
15529;BME280;7866;52.280;9.500;2023-04-27T16:59:45;100656.69;;;13.03;39.55
15529;BME280;7866;52.280;9.500;2023-04-27T17:04:48;100655.31;;;12.76;39.33
15529;BME280;7866;52.280;9.500;2023-04-27T17:09:49;100648.94;;;12.77;40.09
15529;BME280;7866;52.280;9.500;2023-04-27T17:14:51;100642.09;;;12.67;39.36
15529;BME280;7866;52.280;9.500;2023-04-27T17:19:54;100641.84;;;12.53;39.83
15529;BME280;7866;52.280;9.500;2023-04-27T17:24:56;100634.28;;;12.57;39.95
15529;BME280;7866;52.280;9.500;2023-04-27T17:29:57;100634.78;;;12.52;40.28
15529;BME280;7866;52.280;9.500;2023-04-27T17:35:00;100640.16;;;12.52;40.72
15529;BME280;7866;52.280;9.500;2023-04-27T17:40:02;100634.13;;;12.50;40.85
15529;BME280;7866;52.280;9.500;2023-04-27T17:45:06;100641.53;;;12.40;40.79
15529;BME280;7866;52.280;9.500;2023-04-27T17:50:10;100639.03;;;12.39;41.05
15529;BME280;7866;52.280;9.500;2023-04-27T17:55:14;100631.16;;;12.37;42.11
15529;BME280;7866;52.280;9.500;2023-04-27T18:00:16;100622.53;;;12.02;43.93
15529;BME280;7866;52.280;9.500;2023-04-27T18:05:21;100619.88;;;11.94;44.34
15529;BME280;7866;52.280;9.500;2023-04-27T18:10:22;100606.13;;;11.89;45.12
15529;BME280;7866;52.280;9.500;2023-04-27T18:15:24;100613.31;;;11.72;45.42
15529;BME280;7866;52.280;9.500;2023-04-27T18:20:27;100614.38;;;11.47;46.71
15529;BME280;7866;52.280;9.500;2023-04-27T18:25:29;100621.22;;;11.17;47.62
15529;BME280;7866;52.280;9.500;2023-04-27T18:30:31;100609.97;;;11.05;47.35
15529;BME280;7866;52.280;9.500;2023-04-27T18:35:52;100606.75;;;10.85;48.02
15529;BME280;7866;52.280;9.500;2023-04-27T18:40:53;100620.47;;;10.74;48.19
15529;BME280;7866;52.280;9.500;2023-04-27T18:45:55;100626.03;;;10.38;49.75
15529;BME280;7866;52.280;9.500;2023-04-27T18:50:58;100623.88;;;10.16;50.32
15529;BME280;7866;52.280;9.500;2023-04-27T18:56:00;100630.63;;;9.94;51.32
15529;BME280;7866;52.280;9.500;2023-04-27T19:01:02;100619.13;;;10.01;50.96
15529;BME280;7866;52.280;9.500;2023-04-27T19:06:05;100613.41;;;9.96;51.73
15529;BME280;7866;52.280;9.500;2023-04-27T19:11:07;100614.09;;;9.98;51.58
15529;BME280;7866;52.280;9.500;2023-04-27T19:16:09;100614.72;;;9.92;51.74
15529;BME280;7866;52.280;9.500;2023-04-27T19:21:12;100620.09;;;9.66;52.67
15529;BME280;7866;52.280;9.500;2023-04-27T19:26:13;100612.84;;;9.41;53.64
15529;BME280;7866;52.280;9.500;2023-04-27T19:31:15;100610.81;;;9.34;53.83
15529;BME280;7866;52.280;9.500;2023-04-27T19:36:18;100611.81;;;9.16;54.10
15529;BME280;7866;52.280;9.500;2023-04-27T19:41:20;100619.13;;;9.13;54.02
15529;BME280;7866;52.280;9.500;2023-04-27T19:46:22;100610.47;;;8.94;54.22
15529;BME280;7866;52.280;9.500;2023-04-27T19:51:27;100616.00;;;9.00;54.06
15529;BME280;7866;52.280;9.500;2023-04-27T19:56:28;100623.03;;;9.01;54.36
15529;BME280;7866;52.280;9.500;2023-04-27T20:01:30;100626.81;;;8.81;55.08
15529;BME280;7866;52.280;9.500;2023-04-27T20:06:33;100620.53;;;8.82;55.21
15529;BME280;7866;52.280;9.500;2023-04-27T20:11:35;100620.28;;;8.75;54.53
15529;BME280;7866;52.280;9.500;2023-04-27T20:16:36;100615.69;;;8.68;54.82
15529;BME280;7866;52.280;9.500;2023-04-27T20:21:39;100613.84;;;8.68;54.77
15529;BME280;7866;52.280;9.500;2023-04-27T20:26:41;100630.38;;;8.54;55.28
15529;BME280;7866;52.280;9.500;2023-04-27T20:31:43;100619.63;;;8.36;55.79
15529;BME280;7866;52.280;9.500;2023-04-27T20:36:46;100625.06;;;8.44;55.18
15529;BME280;7866;52.280;9.500;2023-04-27T20:41:49;100602.13;;;8.24;55.55
15529;BME280;7866;52.280;9.500;2023-04-27T20:46:50;100601.72;;;8.19;55.78
15529;BME280;7866;52.280;9.500;2023-04-27T20:51:53;100594.44;;;8.11;56.39
15529;BME280;7866;52.280;9.500;2023-04-27T20:56:55;100590.41;;;8.07;55.92
15529;BME280;7866;52.280;9.500;2023-04-27T21:01:57;100588.91;;;7.95;56.57
15529;BME280;7866;52.280;9.500;2023-04-27T21:07:00;100576.50;;;8.03;56.35
15529;BME280;7866;52.280;9.500;2023-04-27T21:12:01;100581.03;;;7.93;56.99
15529;BME280;7866;52.280;9.500;2023-04-27T21:17:03;100577.41;;;7.84;57.25
15529;BME280;7866;52.280;9.500;2023-04-27T21:22:07;100572.94;;;7.85;56.78
15529;BME280;7866;52.280;9.500;2023-04-27T21:27:08;100570.44;;;7.74;57.69
15529;BME280;7866;52.280;9.500;2023-04-27T21:32:10;100570.97;;;7.87;56.88
15529;BME280;7866;52.280;9.500;2023-04-27T21:37:13;100569.31;;;7.76;57.81
15529;BME280;7866;52.280;9.500;2023-04-27T21:42:15;100556.72;;;7.69;58.64
15529;BME280;7866;52.280;9.500;2023-04-27T21:47:17;100560.09;;;7.71;58.79
15529;BME280;7866;52.280;9.500;2023-04-27T21:52:20;100557.03;;;7.56;59.37
15529;BME280;7866;52.280;9.500;2023-04-27T21:57:21;100551.16;;;7.52;59.26
15529;BME280;7866;52.280;9.500;2023-04-27T22:02:23;100551.47;;;7.39;59.26
15529;BME280;7866;52.280;9.500;2023-04-27T22:07:26;100545.13;;;7.40;58.77
15529;BME280;7866;52.280;9.500;2023-04-27T22:12:28;100541.09;;;7.36;60.16
15529;BME280;7866;52.280;9.500;2023-04-27T22:17:30;100537.31;;;7.29;60.25
15529;BME280;7866;52.280;9.500;2023-04-27T22:22:33;100534.09;;;7.16;60.37
15529;BME280;7866;52.280;9.500;2023-04-27T22:27:35;100518.09;;;7.26;59.79
15529;BME280;7866;52.280;9.500;2023-04-27T22:32:36;100509.97;;;7.27;59.42
15529;BME280;7866;52.280;9.500;2023-04-27T22:37:39;100493.72;;;7.30;59.19
15529;BME280;7866;52.280;9.500;2023-04-27T22:42:43;100490.06;;;7.31;59.31
15529;BME280;7866;52.280;9.500;2023-04-27T22:47:45;100491.28;;;7.37;60.20
15529;BME280;7866;52.280;9.500;2023-04-27T22:52:49;100478.63;;;7.58;59.21
15529;BME280;7866;52.280;9.500;2023-04-27T22:57:52;100479.56;;;7.67;58.65
15529;BME280;7866;52.280;9.500;2023-04-27T23:02:54;100476.44;;;7.72;59.12
15529;BME280;7866;52.280;9.500;2023-04-27T23:07:57;100469.44;;;7.71;58.64
15529;BME280;7866;52.280;9.500;2023-04-27T23:12:59;100470.66;;;8.04;56.03
15529;BME280;7866;52.280;9.500;2023-04-27T23:18:01;100464.50;;;8.03;56.17
15529;BME280;7866;52.280;9.500;2023-04-27T23:23:04;100471.38;;;8.06;55.95
15529;BME280;7866;52.280;9.500;2023-04-27T23:28:06;100469.22;;;8.09;55.91
15529;BME280;7866;52.280;9.500;2023-04-27T23:33:07;100462.75;;;8.12;56.38
15529;BME280;7866;52.280;9.500;2023-04-27T23:38:10;100450.19;;;8.22;55.62
15529;BME280;7866;52.280;9.500;2023-04-27T23:43:12;100439.69;;;7.75;58.61
15529;BME280;7866;52.280;9.500;2023-04-27T23:48:13;100429.09;;;7.56;59.73
15529;BME280;7866;52.280;9.500;2023-04-27T23:53:16;100431.63;;;7.57;59.47
15529;BME280;7866;52.280;9.500;2023-04-27T23:58:18;100426.69;;;7.62;60.28
